createdAt,value
2018-04-01T00:02:10.826Z,52.10
2018-04-01T00:04:39.188Z,54.57
2018-04-01T00:07:07.566Z,50.77
2018-04-01T00:09:35.929Z,52.30
2018-04-01T00:12:04.307Z,51.63
2018-04-01T00:14:32.654Z,50.57
2018-04-01T00:17:01.032Z,48.20
2018-04-01T00:19:30.154Z,50.60
2018-04-01T00:21:58.516Z,47.00
2018-04-01T00:24:26.874Z,48.00
2018-04-01T00:26:56.029Z,47.93
2018-04-01T00:29:24.363Z,47.13
2018-04-01T00:31:52.724Z,48.20
2018-04-01T00:34:21.154Z,48.43
2018-04-01T00:36:49.524Z,49.40
2018-04-01T00:39:17.887Z,53.17
2018-04-01T00:41:46.244Z,51.00
2018-04-01T00:44:15.379Z,50.00
2018-04-01T00:46:43.706Z,50.83
2018-04-01T00:49:12.840Z,49.50
2018-04-01T00:51:41.196Z,48.93
2018-04-01T00:54:10.331Z,49.50
2018-04-01T00:56:38.686Z,48.10
2018-04-01T00:59:07.059Z,49.47
2018-04-01T01:01:35.415Z,50.97
2018-04-01T01:04:04.569Z,50.73
2018-04-01T01:06:32.918Z,49.33
2018-04-01T01:09:01.311Z,46.77
2018-04-01T01:11:29.733Z,46.97
2018-04-01T01:13:58.084Z,46.70
2018-04-01T01:16:26.774Z,48.30
2018-04-01T01:18:55.126Z,46.83
2018-04-01T01:21:23.503Z,49.40
2018-04-01T01:23:51.907Z,46.17
2018-04-01T01:26:20.272Z,47.90
2018-04-01T01:28:48.623Z,47.57
2018-04-01T01:31:16.992Z,46.53
2018-04-01T01:33:45.360Z,48.57
2018-04-01T01:36:13.749Z,46.83
2018-04-01T01:38:42.082Z,45.90
2018-04-01T01:41:10.470Z,46.23
2018-04-01T01:43:38.807Z,44.93
2018-04-01T01:46:07.168Z,46.23
2018-04-01T01:48:35.555Z,48.47
2018-04-01T01:51:03.912Z,50.07
2018-04-01T01:53:32.280Z,50.27
2018-04-01T01:56:00.655Z,48.37
2018-04-01T01:58:29.803Z,47.73
2018-04-01T02:00:58.155Z,48.23
2018-04-01T02:03:26.517Z,47.53
2018-04-01T02:05:54.855Z,49.70
2018-04-01T02:08:23.227Z,47.40
2018-04-01T02:10:51.628Z,47.30
2018-04-01T02:13:20.740Z,46.73
2018-04-01T02:15:49.087Z,48.30
2018-04-01T02:18:18.245Z,46.67
2018-04-01T02:20:46.600Z,47.10
2018-04-01T02:23:14.983Z,48.23
2018-04-01T02:25:43.341Z,46.40
2018-04-01T02:28:12.477Z,49.10
2018-04-01T02:30:40.843Z,46.10
2018-04-01T02:33:09.247Z,48.40
2018-04-01T02:35:37.605Z,48.57
2018-04-01T02:38:06.001Z,45.67
2018-04-01T02:40:35.114Z,47.27
2018-04-01T02:43:03.483Z,49.40
2018-04-01T02:45:31.854Z,49.90
2018-04-01T02:48:00.200Z,49.63
2018-04-01T02:50:28.603Z,47.63
2018-04-01T02:52:56.961Z,51.90
2018-04-01T02:55:25.319Z,47.50
2018-04-01T02:57:53.687Z,51.57
2018-04-01T03:00:22.839Z,49.37
2018-04-01T03:02:51.169Z,48.20
2018-04-01T03:05:19.581Z,49.77
2018-04-01T03:07:47.936Z,48.03
2018-04-01T03:10:16.307Z,52.43
2018-04-01T03:12:44.662Z,52.70
2018-04-01T03:15:13.811Z,49.33
2018-04-01T03:17:42.184Z,52.70
2018-04-01T03:20:10.559Z,48.03
2018-04-01T03:22:38.932Z,45.70
2018-04-01T03:25:07.294Z,47.63
2018-04-01T03:27:35.790Z,44.57
2018-04-01T03:30:04.162Z,44.33
2018-04-01T03:32:32.522Z,42.00
2018-04-01T03:35:00.875Z,40.17
2018-04-01T03:37:30.004Z,36.97
2018-04-01T03:39:58.358Z,41.03
2018-04-01T03:42:27.505Z,38.80
2018-04-01T03:44:55.855Z,38.07
2018-04-01T03:47:24.231Z,36.80
2018-04-01T03:49:52.610Z,35.50
2018-04-01T03:52:20.983Z,33.83
2018-04-01T03:54:49.406Z,36.10
2018-04-01T03:57:17.828Z,35.20
2018-04-01T03:59:46.935Z,37.07
2018-04-01T04:02:15.294Z,36.27
2018-04-01T04:04:44.444Z,33.87
2018-04-01T04:07:12.796Z,32.37
2018-04-01T04:09:41.160Z,30.70
2018-04-01T04:12:09.527Z,28.50
2018-04-01T04:14:38.643Z,27.63
2018-04-01T04:17:07.029Z,29.97
2018-04-01T04:19:35.390Z,29.57
2018-04-01T04:22:03.751Z,28.43
2018-04-01T04:24:32.889Z,29.50
2018-04-01T04:27:01.219Z,30.30
2018-04-01T04:29:30.348Z,30.27
2018-04-01T04:31:58.717Z,29.60
2018-04-01T04:34:27.186Z,28.47
2018-04-01T04:36:55.530Z,27.80
2018-04-01T04:39:23.895Z,28.17
2018-04-01T04:41:52.265Z,29.23
2018-04-01T04:44:20.603Z,27.17
2018-04-01T04:46:48.981Z,26.80
2018-04-01T04:49:17.338Z,28.50
2018-04-01T04:51:46.478Z,26.77
2018-04-01T04:54:14.842Z,28.40
2018-04-01T04:56:43.195Z,26.70
2018-04-01T04:59:12.312Z,29.10
2018-04-01T05:01:40.662Z,26.87
2018-04-01T05:04:09.810Z,28.43
2018-04-01T05:06:38.279Z,29.30
2018-04-01T05:09:06.653Z,26.57
2018-04-01T05:11:35.006Z,27.40
2018-04-01T05:14:03.379Z,27.87
2018-04-01T05:16:31.743Z,28.67
2018-04-01T05:19:00.090Z,29.83
2018-04-01T05:21:28.452Z,28.00
2018-04-01T05:23:56.878Z,28.03
2018-04-01T05:26:26.134Z,28.87
2018-04-01T05:28:54.499Z,27.63
2018-04-01T05:31:22.862Z,27.27
2018-04-01T05:33:51.982Z,29.63
2018-04-01T05:36:20.327Z,28.90
2018-04-01T05:38:48.669Z,28.67
2018-04-01T05:41:17.047Z,28.60
2018-04-01T05:43:45.422Z,26.63
2018-04-01T05:46:13.766Z,25.87
2018-04-01T05:48:42.130Z,24.70
2018-04-01T05:51:10.491Z,24.17
2018-04-01T05:53:38.858Z,20.57
2018-04-01T05:56:08.094Z,18.00
2018-04-01T05:58:36.442Z,17.60
2018-04-01T06:01:05.556Z,16.10
2018-04-01T06:03:33.919Z,14.70
2018-04-01T06:06:03.047Z,12.20
2018-04-01T06:08:31.398Z,11.50
2018-04-01T06:10:59.769Z,9.80
2018-04-01T06:13:28.146Z,9.80
2018-04-01T06:15:56.518Z,10.03
2018-04-01T06:18:24.891Z,8.83
2018-04-01T06:20:54.043Z,9.33
2018-04-01T06:23:22.362Z,8.00
2018-04-01T06:25:51.509Z,8.20
2018-04-01T06:28:19.853Z,7.40
2018-04-01T06:30:48.225Z,7.03
2018-04-01T06:33:16.570Z,6.53
2018-04-01T06:35:44.930Z,7.40
2018-04-01T06:38:14.070Z,6.60
2018-04-01T06:40:43.196Z,7.13
2018-04-01T06:43:11.596Z,6.97
2018-04-01T06:45:40.002Z,6.60
2018-04-01T06:48:09.114Z,7.00
2018-04-01T06:50:38.274Z,8.57
2018-04-01T06:53:06.634Z,8.33
2018-04-01T06:55:35.031Z,7.80
2018-04-01T06:58:04.142Z,7.53
2018-04-01T07:00:33.269Z,7.10
2018-04-01T07:03:01.821Z,5.50
2018-04-01T07:05:30.185Z,5.90
2018-04-01T07:07:58.550Z,6.97
2018-04-01T07:10:26.901Z,5.70
2018-04-01T07:12:55.279Z,5.03
2018-04-01T07:15:23.631Z,4.70
2018-04-01T07:17:51.997Z,5.03
2018-04-01T07:20:21.130Z,5.37
2018-04-01T07:22:49.521Z,6.20
2018-04-01T07:25:18.699Z,5.67
2018-04-01T07:27:47.071Z,6.33
2018-04-01T07:30:15.451Z,6.53
2018-04-01T07:32:43.807Z,6.60
2018-04-01T07:35:12.166Z,6.10
2018-04-01T07:37:40.538Z,6.77
2018-04-01T07:40:08.917Z,7.60
2018-04-01T07:42:37.262Z,8.13
2018-04-01T07:45:05.649Z,7.33
2018-04-01T07:47:34.014Z,7.83
2018-04-01T07:50:02.358Z,7.40
2018-04-01T07:52:30.929Z,8.53
2018-04-01T07:55:00.082Z,8.13
2018-04-01T07:57:28.622Z,7.80
2018-04-01T07:59:56.983Z,12.07
2018-04-01T08:02:25.358Z,8.23
2018-04-01T08:04:54.519Z,9.37
2018-04-01T08:07:22.879Z,10.13
2018-04-01T08:09:51.228Z,8.70
2018-04-01T08:12:19.596Z,8.20
2018-04-01T08:14:48.711Z,8.30
2018-04-01T08:17:17.139Z,10.30
2018-04-01T08:19:45.558Z,9.97
2018-04-01T08:22:13.920Z,9.80
2018-04-01T08:24:43.028Z,9.20
2018-04-01T08:27:11.430Z,12.23
2018-04-01T08:29:39.783Z,11.13
2018-04-01T08:32:08.942Z,11.97
2018-04-01T08:34:37.288Z,12.13
2018-04-01T08:37:05.678Z,11.50
2018-04-01T08:39:34.042Z,11.30
2018-04-01T08:42:02.438Z,13.00
2018-04-01T08:44:30.828Z,12.50
2018-04-01T08:46:59.265Z,13.23
2018-04-01T08:49:27.615Z,14.30
2018-04-01T08:51:56.754Z,14.90
2018-04-01T08:54:25.124Z,14.73
2018-04-01T08:56:53.696Z,26.53
2018-04-01T08:59:22.125Z,28.77
2018-04-01T09:01:50.481Z,29.00
2018-04-01T09:04:18.888Z,34.13
2018-04-01T09:06:47.240Z,37.90
2018-04-01T09:09:15.638Z,36.40
2018-04-01T09:11:44.005Z,38.20
2018-04-01T09:14:12.403Z,39.73
2018-04-01T09:16:40.747Z,39.20
2018-04-01T09:19:09.171Z,39.27
2018-04-01T09:21:37.538Z,41.37
2018-04-01T09:24:05.920Z,38.93
2018-04-01T09:26:34.270Z,41.20
2018-04-01T09:29:02.654Z,39.80
2018-04-01T09:31:31.030Z,42.67
2018-04-01T09:33:59.383Z,40.60
2018-04-01T09:36:28.522Z,39.50
2018-04-01T09:38:56.936Z,39.47
2018-04-01T09:41:25.307Z,39.70
2018-04-01T09:43:54.464Z,37.03
2018-04-01T09:46:22.843Z,37.87
2018-04-01T09:48:51.229Z,35.93
2018-04-01T09:51:19.594Z,34.40
2018-04-01T09:53:47.962Z,34.30
2018-04-01T09:56:16.372Z,34.67
2018-04-01T09:58:44.699Z,34.60
2018-04-01T10:01:14.824Z,35.00
2018-04-01T10:03:44.032Z,31.90
2018-04-01T10:06:13.258Z,33.37
2018-04-01T10:08:42.517Z,35.60
2018-04-01T10:11:11.746Z,33.80
2018-04-01T10:13:40.948Z,33.63
2018-04-01T10:16:10.258Z,35.77
2018-04-01T10:18:39.472Z,34.57
2018-04-01T10:21:09.476Z,34.90
2018-04-01T10:23:39.443Z,34.23
2018-04-01T10:26:08.690Z,36.17
2018-04-01T10:28:38.671Z,33.03
2018-04-01T10:31:07.927Z,33.10
2018-04-01T10:33:37.172Z,32.07
2018-04-01T10:36:06.497Z,32.03
2018-04-01T10:38:36.519Z,30.37
2018-04-01T10:41:06.527Z,32.10
2018-04-01T10:43:36.547Z,32.17
2018-04-01T10:46:06.581Z,32.97
2018-04-01T10:48:35.819Z,31.67
2018-04-01T10:51:05.066Z,33.87
2018-04-01T10:53:35.061Z,31.93
2018-04-01T10:56:03.435Z,33.70
2018-04-01T10:58:32.002Z,31.73
2018-04-01T11:01:00.441Z,32.77
2018-04-01T11:03:28.793Z,35.23
2018-04-01T11:05:57.174Z,35.90
2018-04-01T11:08:26.373Z,33.23
2018-04-01T11:10:54.896Z,33.17
2018-04-01T11:13:23.240Z,34.47
2018-04-01T11:15:51.672Z,34.30
2018-04-01T11:18:20.232Z,36.90
2018-04-01T11:20:49.332Z,38.27
2018-04-01T11:23:18.074Z,37.90
2018-04-01T11:25:47.228Z,38.97
2018-04-01T11:28:15.599Z,39.23
2018-04-01T11:30:44.013Z,39.43
2018-04-01T11:33:12.371Z,36.10
2018-04-01T11:35:40.755Z,37.43
2018-04-01T11:38:09.129Z,32.60
2018-04-01T11:40:38.283Z,32.67
2018-04-01T11:43:06.673Z,30.80
2018-04-01T11:45:35.087Z,30.13
2018-04-01T11:48:04.241Z,30.43
2018-04-01T11:50:32.618Z,34.87
2018-04-01T11:53:01.586Z,30.17
2018-04-01T11:55:29.984Z,34.70
2018-04-01T11:57:58.352Z,32.30
2018-04-01T12:00:27.465Z,30.90
2018-04-01T12:02:55.915Z,32.97
2018-04-01T12:05:24.218Z,31.57
2018-04-01T12:07:52.582Z,28.83
2018-04-01T12:10:20.957Z,29.83
2018-04-01T12:12:50.063Z,32.33
2018-04-01T12:15:18.530Z,34.73
2018-04-01T12:17:46.928Z,34.67
2018-04-01T12:20:15.322Z,32.60
2018-04-01T12:22:43.684Z,29.63
2018-04-01T12:25:12.133Z,27.73
2018-04-01T12:27:40.455Z,23.93
2018-04-01T12:30:08.828Z,22.87
2018-04-01T12:32:37.210Z,21.37
2018-04-01T12:35:05.562Z,21.10
2018-04-01T12:37:33.939Z,21.07
2018-04-01T12:40:02.330Z,20.10
2018-04-01T12:42:31.423Z,22.47
2018-04-01T12:44:59.779Z,21.50
2018-04-01T12:47:28.108Z,22.20
2018-04-01T12:49:56.519Z,21.63
2018-04-01T12:52:24.863Z,23.07
2018-04-01T12:54:53.343Z,22.03
2018-04-01T12:57:21.654Z,21.83
2018-04-01T12:59:50.780Z,23.40
2018-04-01T13:02:19.154Z,22.07
2018-04-01T13:04:47.535Z,21.33
2018-04-01T13:07:15.904Z,23.50
2018-04-01T13:09:44.296Z,25.20
2018-04-01T13:12:12.642Z,21.67
2018-04-01T13:14:41.755Z,27.53
2018-04-01T13:17:10.125Z,24.87
2018-04-01T13:19:39.242Z,23.77
2018-04-01T13:22:07.619Z,23.80
2018-04-01T13:24:35.984Z,22.97
2018-04-01T13:27:04.415Z,24.63
2018-04-01T13:29:33.574Z,23.57
2018-04-01T13:32:01.927Z,26.13
2018-04-01T13:34:30.350Z,26.00
2018-04-01T13:36:58.703Z,29.70
2018-04-01T13:39:27.059Z,25.73
2018-04-01T13:41:56.202Z,22.90
2018-04-01T13:44:24.649Z,20.60
2018-04-01T13:46:53.738Z,20.30
2018-04-01T13:49:22.114Z,20.83
2018-04-01T13:51:51.225Z,22.80
2018-04-01T13:54:19.577Z,20.47
2018-04-01T13:56:48.709Z,25.60
2018-04-01T13:59:17.035Z,20.33
2018-04-01T14:01:46.192Z,20.80
2018-04-01T14:04:14.596Z,18.50
2018-04-01T14:06:42.966Z,19.97
2018-04-01T14:09:11.342Z,18.00
2018-04-01T14:11:39.790Z,14.87
2018-04-01T14:14:08.134Z,15.57
2018-04-01T14:16:36.560Z,14.17
2018-04-01T14:19:04.980Z,14.03
2018-04-01T14:21:34.202Z,12.10
2018-04-01T14:24:02.576Z,11.70
2018-04-01T14:26:31.040Z,11.37
2018-04-01T14:28:59.415Z,11.70
2018-04-01T14:31:27.781Z,12.33
2018-04-01T14:33:56.147Z,13.30
2018-04-01T14:36:24.523Z,12.83
2018-04-01T14:38:52.910Z,12.50
2018-04-01T14:41:21.297Z,15.33
2018-04-01T14:43:50.470Z,14.47
2018-04-01T14:46:18.871Z,15.57
2018-04-01T14:48:48.031Z,15.67
2018-04-01T14:51:16.455Z,15.40
2018-04-01T14:53:44.813Z,16.73
2018-04-01T14:56:13.179Z,17.90
2018-04-01T14:58:41.577Z,15.63
2018-04-01T15:01:10.113Z,17.63
2018-04-01T15:03:38.462Z,17.30
2018-04-01T15:06:07.636Z,16.77
2018-04-01T15:08:36.040Z,15.97
2018-04-01T15:11:05.230Z,14.37
2018-04-01T15:13:34.433Z,15.30
2018-04-01T15:16:02.862Z,14.13
2018-04-01T15:18:31.260Z,15.40
2018-04-01T15:21:00.430Z,16.30
2018-04-01T15:23:28.776Z,15.40
2018-04-01T15:25:57.177Z,16.97
2018-04-01T15:28:25.538Z,16.37
2018-04-01T15:30:53.927Z,17.53
2018-04-01T15:33:22.379Z,16.63
2018-04-01T15:35:51.569Z,15.90
2018-04-01T15:38:20.886Z,17.60
2018-04-01T15:40:49.279Z,16.87
2018-04-01T15:43:18.361Z,16.30
2018-04-01T15:45:47.533Z,17.60
2018-04-01T15:48:16.744Z,16.77
2018-04-01T15:50:45.915Z,17.77
2018-04-01T15:53:14.300Z,17.53
2018-04-01T15:55:42.682Z,18.10
2018-04-01T15:58:11.819Z,19.00
2018-04-01T16:00:40.211Z,18.20
2018-04-01T16:03:08.554Z,18.97
2018-04-01T16:05:36.954Z,19.03
2018-04-01T16:08:05.387Z,17.30
2018-04-01T16:10:33.731Z,18.80
2018-04-01T16:13:03.160Z,19.73
2018-04-01T16:15:31.583Z,15.83
2018-04-01T16:17:59.984Z,17.80
2018-04-01T16:20:28.330Z,17.30
2018-04-01T16:22:56.722Z,17.73
2018-04-01T16:25:25.098Z,20.20
2018-04-01T16:27:53.476Z,20.70
2018-04-01T16:30:21.835Z,20.37
2018-04-01T16:32:51.054Z,22.80
2018-04-01T16:35:19.412Z,22.70
2018-04-01T16:37:47.799Z,23.83
2018-04-01T16:40:16.171Z,21.70
2018-04-01T16:42:44.570Z,22.60
2018-04-01T16:45:12.939Z,23.43
2018-04-01T16:47:41.394Z,22.77
2018-04-01T16:50:10.726Z,22.47
2018-04-01T16:52:39.061Z,24.07
2018-04-01T16:55:07.468Z,23.73
2018-04-01T16:57:35.824Z,23.57
2018-04-01T17:00:04.973Z,24.67
2018-04-01T17:02:34.091Z,27.03
2018-04-01T17:05:04.264Z,26.60
2018-04-01T17:07:33.603Z,28.73
2018-04-01T17:10:01.971Z,27.90
2018-04-01T17:12:30.415Z,24.90
2018-04-01T17:14:58.943Z,25.17
2018-04-01T17:17:27.307Z,23.10
2018-04-01T17:19:55.672Z,24.17
2018-04-01T17:22:24.025Z,26.70
2018-04-01T17:24:52.431Z,26.20
2018-04-01T17:27:21.579Z,28.60
2018-04-01T17:29:50.732Z,31.90
2018-04-01T17:32:19.116Z,30.63
2018-04-01T17:34:48.259Z,34.77
2018-04-01T17:37:17.373Z,33.50
2018-04-01T17:39:45.768Z,35.60
2018-04-01T17:42:14.157Z,31.13
2018-04-01T17:44:42.536Z,29.83
2018-04-01T17:47:11.611Z,29.10
2018-04-01T17:49:40.007Z,24.30
2018-04-01T17:52:08.367Z,24.20
2018-04-01T17:54:36.768Z,22.03
2018-04-01T17:57:05.156Z,18.47
2018-04-01T17:59:33.756Z,19.07
2018-04-01T18:02:02.731Z,17.87
2018-04-01T18:04:31.122Z,16.90
2018-04-01T18:06:59.533Z,17.93
2018-04-01T18:09:28.660Z,18.70
2018-04-01T18:11:57.063Z,18.83
2018-04-01T18:14:25.441Z,18.00
2018-04-01T18:16:54.153Z,18.47
2018-04-01T18:19:22.503Z,20.20
2018-04-01T18:21:50.896Z,21.80
2018-04-01T18:24:20.066Z,23.67
2018-04-01T18:26:49.238Z,21.87
2018-04-01T18:29:17.613Z,22.27
2018-04-01T18:31:46.018Z,22.53
2018-04-01T18:34:14.376Z,25.70
2018-04-01T18:36:42.755Z,24.60
2018-04-01T18:39:11.130Z,23.53
2018-04-01T18:41:39.528Z,21.90
2018-04-01T18:44:07.899Z,24.83
2018-04-01T18:46:36.284Z,24.03
2018-04-01T18:49:04.660Z,23.73
2018-04-01T18:51:33.110Z,23.70
2018-04-01T18:54:01.650Z,21.50
2018-04-01T18:56:30.103Z,24.03
2018-04-01T18:58:58.531Z,26.03
2018-04-01T19:01:26.993Z,23.57
2018-04-01T19:03:56.083Z,23.27
2018-04-01T19:06:25.547Z,23.20
2018-04-01T19:08:53.926Z,23.87
2018-04-01T19:11:22.305Z,22.33
2018-04-01T19:13:50.700Z,22.13
2018-04-01T19:16:19.937Z,26.37
2018-04-01T19:18:49.222Z,24.13
2018-04-01T19:21:19.244Z,24.47
2018-04-01T19:23:48.542Z,25.60
2018-04-01T19:26:17.740Z,27.60
2018-04-01T19:28:47.030Z,31.30
2018-04-01T19:31:16.202Z,42.30
2018-04-01T19:33:45.496Z,40.53
2018-04-01T19:36:14.755Z,42.47
2018-04-01T19:38:44.779Z,44.27
2018-04-01T19:41:14.750Z,43.03
2018-04-01T19:43:44.022Z,43.77
2018-04-01T19:46:13.267Z,46.30
2018-04-01T19:48:43.364Z,54.50
2018-04-01T19:51:12.608Z,57.13
2018-04-01T19:53:41.784Z,56.27
2018-04-01T19:56:11.808Z,55.17
2018-04-01T19:58:41.835Z,57.80
2018-04-01T20:01:11.294Z,63.87
2018-04-01T20:03:40.498Z,91.73
2018-04-01T20:06:09.766Z,87.40
2018-04-01T20:08:39.007Z,90.50
2018-04-01T20:11:08.240Z,83.47
2018-04-01T20:13:37.456Z,81.07
2018-04-01T20:16:07.546Z,85.03
2018-04-01T20:18:36.802Z,78.53
2018-04-01T20:21:06.052Z,74.13
2018-04-01T20:23:35.302Z,65.73
2018-04-01T20:26:04.598Z,67.30
2018-04-01T20:28:33.841Z,71.00
2018-04-01T20:31:03.060Z,63.73
2018-04-01T20:33:32.295Z,66.33
2018-04-01T20:36:01.538Z,59.03
2018-04-01T20:38:30.778Z,63.43
2018-04-01T20:41:00.040Z,63.40
2018-04-01T20:43:29.258Z,64.07
2018-04-01T20:45:58.538Z,60.67
2018-04-01T20:48:27.774Z,60.10
2018-04-01T20:50:56.990Z,61.10
2018-04-01T20:53:26.242Z,60.87
2018-04-01T20:55:55.474Z,57.40
2018-04-01T20:58:24.695Z,62.13
2018-04-01T21:00:54.690Z,60.10
2018-04-01T21:03:23.914Z,60.33
2018-04-01T21:05:53.919Z,57.10
2018-04-01T21:08:24.127Z,60.37
2018-04-01T21:10:53.436Z,57.40
2018-04-01T21:13:22.700Z,58.97
2018-04-01T21:15:51.898Z,58.23
2018-04-01T21:18:21.456Z,54.63
2018-04-01T21:20:51.454Z,56.67
2018-04-01T21:23:20.693Z,54.93
2018-04-01T21:25:49.963Z,53.00
2018-04-01T21:28:19.222Z,51.23
2018-04-01T21:30:48.461Z,51.23
2018-04-01T21:33:18.482Z,54.40
2018-04-01T21:35:47.704Z,53.57
2018-04-01T21:38:16.971Z,49.70
2018-04-01T21:40:46.212Z,59.23
2018-04-01T21:43:15.460Z,54.87
2018-04-01T21:45:44.662Z,58.10
2018-04-01T21:48:14.712Z,71.37
2018-04-01T21:50:43.913Z,80.10
2018-04-01T21:53:13.180Z,85.07
2018-04-01T21:55:42.424Z,82.17
2018-04-01T21:58:11.649Z,79.93
2018-04-01T22:00:40.987Z,82.50
2018-04-01T22:03:10.257Z,74.30
2018-04-01T22:05:39.491Z,69.93
2018-04-01T22:08:08.696Z,66.23
2018-04-01T22:10:37.902Z,64.77
2018-04-01T22:13:07.114Z,58.10
2018-04-01T22:15:36.351Z,55.73
2018-04-01T22:18:05.562Z,53.43
2018-04-01T22:20:35.560Z,49.23
2018-04-01T22:23:12.328Z,52.10
2018-04-01T22:25:41.575Z,54.43
2018-04-01T22:28:10.790Z,51.77
2018-04-01T22:30:40.085Z,49.67
2018-04-01T22:33:10.045Z,47.30
2018-04-01T22:35:40.051Z,49.80
2018-04-01T22:38:09.512Z,48.30
2018-04-01T22:40:38.731Z,45.10
2018-04-01T22:43:07.941Z,47.40
2018-04-01T22:45:37.170Z,47.50
2018-04-01T22:48:07.151Z,46.50
2018-04-01T22:50:36.367Z,44.97
2018-04-01T22:53:05.629Z,49.23
2018-04-01T22:55:34.842Z,45.90
2018-04-01T22:58:04.096Z,46.63
2018-04-01T23:00:33.369Z,45.97
2018-04-01T23:03:02.551Z,47.70
2018-04-01T23:05:31.762Z,46.33
2018-04-01T23:08:01.007Z,48.03
2018-04-01T23:10:30.248Z,47.67
2018-04-01T23:12:59.500Z,49.10
2018-04-01T23:15:28.697Z,49.27
2018-04-01T23:17:58.039Z,46.90
2018-04-01T23:20:27.297Z,47.70
2018-04-01T23:22:56.501Z,48.57
2018-04-01T23:25:26.003Z,47.57
2018-04-01T23:27:55.958Z,51.10
2018-04-01T23:30:25.304Z,50.00
2018-04-01T23:32:55.338Z,48.87
2018-04-01T23:35:24.568Z,51.10
2018-04-01T23:37:53.829Z,48.70
2018-04-01T23:40:23.090Z,51.67
2018-04-01T23:42:53.145Z,50.27
2018-04-01T23:45:22.339Z,49.23
2018-04-01T23:47:51.561Z,51.57
2018-04-01T23:50:20.756Z,49.03
2018-04-01T23:52:49.979Z,51.10
2018-04-01T23:55:19.184Z,48.23
2018-04-01T23:57:48.428Z,51.80
